Time;durP1;ratioP1;P1;durP2;ratioP2;P2;SDS_P1;SDS_P2;PMS_P1;PMS_P2;Temp;Humidity;BMP_temperature;BMP_pressure;BME280_temperature;BME280_humidity;BME280_pressure;Samples;Min_cycle;Max_cycle;Signal;HPM_P1;HPM_P2
2022/01/05 00:00:41;;;;;;;2.40;1.50;;;17.80;53.60;;;;;;5097076;28;20018;-64
2022/01/05 00:03:06;;;;;;;2.15;1.10;;;17.70;53.70;;;;;;5097285;28;20013;-64
2022/01/05 00:05:33;;;;;;;2.90;1.58;;;17.70;53.70;;;;;;5096316;28;20064;-64
2022/01/05 00:07:59;;;;;;;2.20;1.40;;;17.70;53.80;;;;;;5096821;28;20048;-64
2022/01/05 00:10:25;;;;;;;2.17;1.30;;;17.60;53.70;;;;;;5096783;28;20016;-64
2022/01/05 00:12:52;;;;;;;3.03;1.48;;;17.60;53.80;;;;;;5097283;28;20020;-65
2022/01/05 00:15:19;;;;;;;2.22;1.50;;;17.60;53.90;;;;;;5096749;28;20033;-65
2022/01/05 00:17:45;;;;;;;2.00;1.27;;;17.50;53.90;;;;;;5096479;28;20028;-63
2022/01/05 00:20:11;;;;;;;2.55;1.30;;;17.50;54.10;;;;;;5096568;28;20012;-63
2022/01/05 00:22:37;;;;;;;2.75;1.58;;;17.50;54.10;;;;;;5096572;28;20065;-63
2022/01/05 00:25:05;;;;;;;1.73;1.45;;;17.40;54.10;;;;;;5096671;28;20031;-63
2022/01/05 00:27:31;;;;;;;1.80;1.10;;;17.40;54.10;;;;;;5096396;28;20106;-63
2022/01/05 00:29:58;;;;;;;2.83;1.50;;;17.50;54.10;;;;;;5096296;28;20045;-63
2022/01/05 00:32:24;;;;;;;2.38;1.33;;;17.50;54.00;;;;;;5096130;28;20024;-63
2022/01/05 00:34:52;;;;;;;3.17;1.45;;;17.50;53.90;;;;;;5096008;28;20100;-64
2022/01/05 00:37:20;;;;;;;3.22;1.48;;;17.40;53.90;;;;;;5095999;28;20008;-63
2022/01/05 00:39:46;;;;;;;2.53;1.30;;;17.40;53.90;;;;;;5094897;28;20023;-63
2022/01/05 00:42:14;;;;;;;1.92;1.17;;;17.40;53.90;;;;;;5095648;28;20008;-63
2022/01/05 00:44:39;;;;;;;2.30;1.50;;;17.40;54.00;;;;;;5095955;28;20016;-64
2022/01/05 00:47:06;;;;;;;1.98;1.30;;;17.30;54.20;;;;;;5095816;28;20018;-63
2022/01/05 00:49:32;;;;;;;3.53;1.60;;;17.30;54.40;;;;;;5094813;28;20023;-63
2022/01/05 00:51:58;;;;;;;3.00;1.48;;;17.20;54.40;;;;;;5094237;28;20482;-62
2022/01/05 00:54:24;;;;;;;2.67;1.30;;;17.10;54.40;;;;;;5095648;28;20095;-64
2022/01/05 00:56:50;;;;;;;1.48;1.20;;;17.10;54.50;;;;;;5095663;28;20103;-63
2022/01/05 00:59:15;;;;;;;1.70;1.23;;;17.10;54.60;;;;;;5095748;28;20535;-63
2022/01/05 01:01:41;;;;;;;1.80;1.20;;;17.10;54.60;;;;;;5095645;28;20546;-63
2022/01/05 01:04:08;;;;;;;1.63;1.00;;;17.00;54.70;;;;;;5095571;28;20024;-63
2022/01/05 01:06:34;;;;;;;2.03;1.17;;;17.00;54.80;;;;;;5095434;28;20016;-63
2022/01/05 01:09:01;;;;;;;2.35;1.33;;;17.00;54.70;;;;;;5095279;28;20052;-63
2022/01/05 01:11:26;;;;;;;2.83;1.35;;;17.00;54.70;;;;;;5095406;28;20027;-62
2022/01/05 01:13:53;;;;;;;1.73;1.25;;;17.00;54.60;;;;;;5095615;28;20103;-63
2022/01/05 01:16:19;;;;;;;2.17;1.23;;;17.10;54.50;;;;;;5094063;28;20012;-63
2022/01/05 01:18:45;;;;;;;2.95;1.67;;;17.00;54.40;;;;;;5094558;28;20503;-63
2022/01/05 01:21:12;;;;;;;2.65;1.63;;;17.00;54.40;;;;;;5095663;28;20475;-63
2022/01/05 01:23:40;;;;;;;1.95;1.30;;;17.00;54.50;;;;;;5095662;28;20050;-62
2022/01/05 01:26:07;;;;;;;2.22;1.33;;;17.00;54.80;;;;;;5095734;28;20047;-63
2022/01/05 01:28:33;;;;;;;2.47;1.65;;;16.90;55.00;;;;;;5095662;28;20024;-63
2022/01/05 01:30:59;;;;;;;2.88;1.40;;;16.80;54.80;;;;;;5095571;28;20100;-63
2022/01/05 01:33:25;;;;;;;2.25;1.40;;;16.80;54.80;;;;;;5095146;28;20025;-62
2022/01/05 01:35:51;;;;;;;2.17;1.50;;;16.80;54.90;;;;;;5095039;28;20063;-63
2022/01/05 01:38:18;;;;;;;2.67;1.40;;;16.70;54.90;;;;;;5095532;28;20020;-63
2022/01/05 01:40:44;;;;;;;3.25;1.30;;;16.70;55.00;;;;;;5095079;28;20542;-63
2022/01/05 01:43:11;;;;;;;2.58;1.38;;;16.70;55.00;;;;;;5095334;28;20008;-63
2022/01/05 01:45:37;;;;;;;1.85;1.23;;;16.70;55.00;;;;;;5095285;28;20700;-62
2022/01/05 01:48:04;;;;;;;2.53;1.20;;;16.60;55.10;;;;;;5095311;28;20023;-63
2022/01/05 01:50:30;;;;;;;3.13;1.50;;;16.60;55.20;;;;;;5094782;28;20008;-63
2022/01/05 01:52:56;;;;;;;2.95;1.58;;;16.60;55.10;;;;;;5094983;28;20014;-63
2022/01/05 01:55:22;;;;;;;6.15;1.88;;;16.60;55.20;;;;;;5094535;28;20125;-63
2022/01/05 01:57:48;;;;;;;2.65;1.58;;;16.50;55.20;;;;;;5093854;28;20015;-63
2022/01/05 02:00:14;;;;;;;2.80;1.30;;;16.50;55.20;;;;;;5093297;28;20020;-63
2022/01/05 02:02:40;;;;;;;3.45;1.65;;;16.50;55.20;;;;;;5094436;28;20022;-63
2022/01/05 02:05:07;;;;;;;3.40;1.50;;;16.50;55.20;;;;;;5093507;28;20036;-63
2022/01/05 02:07:32;;;;;;;2.20;1.55;;;16.50;55.20;;;;;;5093951;28;20505;-63
2022/01/05 02:09:58;;;;;;;2.80;1.40;;;16.50;55.30;;;;;;5094041;28;20008;-62
2022/01/05 02:12:26;;;;;;;2.67;1.45;;;16.40;55.30;;;;;;5094562;28;20028;-63
2022/01/05 02:14:55;;;;;;;2.55;1.20;;;16.30;55.30;;;;;;5094283;28;20024;-63
2022/01/05 02:17:28;;;;;;;4.13;1.30;;;16.30;55.50;;;;;;5094944;28;20020;-63
2022/01/05 02:19:54;;;;;;;2.17;1.00;;;16.30;55.60;;;;;;5094856;28;20028;-64
2022/01/05 02:22:20;;;;;;;3.72;1.55;;;16.30;55.80;;;;;;5094340;28;20046;-64
2022/01/05 02:24:47;;;;;;;2.08;1.30;;;16.20;55.70;;;;;;5094559;28;20020;-65
2022/01/05 02:27:16;;;;;;;3.90;1.60;;;16.20;55.80;;;;;;5095564;28;20549;-64
2022/01/05 02:29:44;;;;;;;2.40;1.55;;;16.20;55.80;;;;;;5095164;28;20024;-64
2022/01/05 02:32:10;;;;;;;3.03;1.50;;;16.10;55.80;;;;;;5095168;28;20518;-64
2022/01/05 02:34:36;;;;;;;2.85;1.33;;;16.10;55.90;;;;;;5093728;28;20031;-65
2022/01/05 02:37:01;;;;;;;1.92;1.35;;;16.10;55.90;;;;;;5095616;28;20018;-64
2022/01/05 02:39:29;;;;;;;2.47;1.23;;;16.10;55.90;;;;;;5093716;28;20027;-64
2022/01/05 02:41:54;;;;;;;2.47;1.67;;;16.10;56.00;;;;;;5094631;28;20509;-63
2022/01/05 02:44:21;;;;;;;3.20;1.23;;;16.10;55.90;;;;;;5095555;28;20028;-64
2022/01/05 02:46:47;;;;;;;2.25;1.30;;;16.00;55.90;;;;;;5094925;28;20024;-63
2022/01/05 02:49:14;;;;;;;2.42;1.63;;;16.10;56.00;;;;;;5095470;28;20493;-64
2022/01/05 02:51:40;;;;;;;3.45;1.63;;;16.00;56.00;;;;;;5095098;28;20016;-64
2022/01/05 02:54:07;;;;;;;5.13;1.48;;;16.00;56.00;;;;;;5094787;28;20036;-64
2022/01/05 02:56:33;;;;;;;3.80;1.50;;;16.00;56.00;;;;;;5095720;28;20073;-64
2022/01/05 02:59:02;;;;;;;4.47;1.30;;;16.00;56.00;;;;;;5095650;28;20016;-64
2022/01/05 03:01:28;;;;;;;3.50;1.92;;;16.00;55.90;;;;;;5093905;28;20008;-63
2022/01/05 03:03:55;;;;;;;3.95;1.50;;;16.00;55.90;;;;;;5095248;28;20513;-64
2022/01/05 03:06:22;;;;;;;2.95;1.45;;;16.00;55.80;;;;;;5095718;28;20065;-64
2022/01/05 03:08:48;;;;;;;3.25;1.48;;;16.00;55.80;;;;;;5095027;28;20486;-64
2022/01/05 03:11:14;;;;;;;3.67;1.60;;;16.00;55.80;;;;;;5094356;28;20035;-65
2022/01/05 03:13:40;;;;;;;3.08;1.63;;;16.00;55.70;;;;;;5093394;28;20077;-65
2022/01/05 03:16:06;;;;;;;2.63;1.13;;;16.00;55.60;;;;;;5094470;28;20020;-64
2022/01/05 03:18:32;;;;;;;3.80;1.30;;;16.00;55.60;;;;;;5094381;28;20016;-64
2022/01/05 03:20:58;;;;;;;2.83;1.33;;;16.00;55.60;;;;;;5093997;28;20032;-64
2022/01/05 03:23:25;;;;;;;2.47;1.20;;;15.90;55.50;;;;;;5093589;28;20497;-64
2022/01/05 03:25:51;;;;;;;4.50;1.60;;;16.00;55.50;;;;;;5093303;28;20020;-64
2022/01/05 03:28:16;;;;;;;2.60;1.40;;;15.90;55.40;;;;;;5093176;28;20011;-65
2022/01/05 03:30:43;;;;;;;3.25;1.35;;;15.90;55.40;;;;;;5094200;28;20532;-64
2022/01/05 03:33:12;;;;;;;3.13;1.60;;;15.90;55.30;;;;;;5094506;28;20004;-63
2022/01/05 03:35:42;;;;;;;3.47;1.42;;;15.90;55.30;;;;;;5094166;28;20020;-64
2022/01/05 03:38:08;;;;;;;6.80;1.58;;;15.90;55.40;;;;;;5094302;28;20064;-66
2022/01/05 03:40:34;;;;;;;3.17;1.30;;;15.90;55.30;;;;;;5092514;28;20029;-65
2022/01/05 03:43:01;;;;;;;2.83;1.38;;;15.90;55.40;;;;;;5093816;28;20493;-65
2022/01/05 03:45:26;;;;;;;4.90;1.58;;;15.90;55.30;;;;;;5092439;28;20070;-64
2022/01/05 03:47:52;;;;;;;2.33;1.52;;;15.90;55.30;;;;;;5092303;28;20035;-64
2022/01/05 03:50:18;;;;;;;3.33;1.25;;;15.80;55.20;;;;;;5093442;28;20024;-65
2022/01/05 03:52:43;;;;;;;2.40;1.38;;;15.80;55.20;;;;;;5093177;28;20024;-64
2022/01/05 03:55:10;;;;;;;3.67;1.50;;;15.80;55.20;;;;;;5091651;28;20035;-65
2022/01/05 03:57:36;;;;;;;2.40;1.55;;;15.80;55.20;;;;;;5093163;28;20016;-64
2022/01/05 04:00:04;;;;;;;2.88;1.52;;;15.80;55.20;;;;;;5093218;28;20084;-63
2022/01/05 04:02:30;;;;;;;2.40;1.35;;;15.80;55.20;;;;;;5093138;28;20005;-63
2022/01/05 04:04:56;;;;;;;3.05;1.50;;;15.80;55.20;;;;;;5093090;28;20136;-63
2022/01/05 04:07:23;;;;;;;5.03;1.45;;;15.80;55.10;;;;;;5092683;28;20031;-63
2022/01/05 04:09:48;;;;;;;1.90;1.33;;;15.80;55.10;;;;;;5093238;28;20020;-63
2022/01/05 04:12:14;;;;;;;4.85;1.38;;;15.80;55.20;;;;;;5074956;28;20077;-63
2022/01/05 04:14:42;;;;;;;2.95;1.40;;;15.80;55.10;;;;;;5074843;28;20101;-63
2022/01/05 04:17:08;;;;;;;3.05;1.30;;;15.70;55.10;;;;;;5093095;28;20044;-63
2022/01/05 04:19:35;;;;;;;2.28;1.27;;;15.70;55.10;;;;;;5093061;28;20024;-63
2022/01/05 04:22:01;;;;;;;2.05;1.20;;;15.70;55.10;;;;;;5092980;28;20013;-63
2022/01/05 04:24:27;;;;;;;3.72;1.50;;;15.70;55.10;;;;;;5095322;28;20020;-63
2022/01/05 04:26:54;;;;;;;2.28;1.38;;;15.70;54.90;;;;;;5096744;28;20043;-63
2022/01/05 04:29:20;;;;;;;3.10;1.45;;;15.70;54.90;;;;;;5096617;28;20057;-63
2022/01/05 04:31:46;;;;;;;2.58;1.20;;;15.70;54.80;;;;;;5096373;28;20020;-63
2022/01/05 04:34:13;;;;;;;4.45;1.58;;;15.70;54.80;;;;;;5096437;28;20550;-63
2022/01/05 04:36:39;;;;;;;1.55;1.02;;;15.70;54.80;;;;;;5095004;28;20043;-63
2022/01/05 04:39:05;;;;;;;2.40;1.45;;;15.70;54.70;;;;;;5095325;28;20099;-63
2022/01/05 04:41:31;;;;;;;3.50;1.67;;;15.70;55.30;;;;;;5096446;28;20017;-62
2022/01/05 04:43:57;;;;;;;2.20;1.27;;;15.70;54.70;;;;;;5096203;28;20466;-63
2022/01/05 04:46:23;;;;;;;2.30;1.20;;;15.70;54.60;;;;;;5096105;28;20024;-63
2022/01/05 04:48:49;;;;;;;1.90;1.08;;;15.60;54.70;;;;;;5095261;28;20020;-63
2022/01/05 04:51:15;;;;;;;2.45;1.50;;;15.60;54.60;;;;;;5095136;28;20020;-63
2022/01/05 04:53:44;;;;;;;2.90;1.45;;;15.60;54.60;;;;;;5096460;28;20032;-63
2022/01/05 04:56:10;;;;;;;4.10;1.40;;;15.60;54.50;;;;;;5096519;28;20039;-63
2022/01/05 04:58:36;;;;;;;3.53;1.17;;;15.60;54.50;;;;;;5096469;28;20019;-63
2022/01/05 05:01:01;;;;;;;2.25;1.23;;;15.60;54.50;;;;;;5095500;28;20098;-63
2022/01/05 05:03:27;;;;;;;2.97;1.40;;;15.60;54.60;;;;;;5095305;28;20012;-63
2022/01/05 05:05:53;;;;;;;3.08;1.38;;;15.60;54.50;;;;;;5096467;28;20024;-63
2022/01/05 05:08:19;;;;;;;3.05;1.40;;;15.60;54.40;;;;;;5097397;28;20055;-63
2022/01/05 05:10:46;;;;;;;3.05;1.33;;;15.60;54.40;;;;;;5098522;28;20013;-63
2022/01/05 05:13:12;;;;;;;2.05;1.10;;;15.60;54.40;;;;;;5097218;28;20027;-63
2022/01/05 05:15:38;;;;;;;2.67;1.25;;;15.60;54.40;;;;;;5096390;28;20028;-63
2022/01/05 05:18:04;;;;;;;4.10;1.30;;;15.60;54.30;;;;;;5094539;28;20041;-63
2022/01/05 05:20:30;;;;;;;3.03;1.30;;;15.60;54.40;;;;;;5095895;28;20019;-63
2022/01/05 05:22:57;;;;;;;2.70;1.52;;;15.50;54.30;;;;;;5095991;28;20023;-63
2022/01/05 05:25:22;;;;;;;2.92;1.17;;;15.50;54.20;;;;;;5096218;28;20016;-63
2022/01/05 05:27:49;;;;;;;3.72;1.40;;;15.50;54.20;;;;;;5094831;28;20020;-63
2022/01/05 05:30:15;;;;;;;2.60;1.40;;;15.50;54.20;;;;;;5096065;28;20107;-63
2022/01/05 05:32:44;;;;;;;3.63;1.17;;;15.50;54.10;;;;;;5096247;28;20017;-63
2022/01/05 05:35:10;;;;;;;2.67;1.35;;;15.50;54.10;;;;;;5095369;28;20032;-62
2022/01/05 05:37:36;;;;;;;2.80;1.45;;;15.60;54.10;;;;;;5094649;28;20036;-63
2022/01/05 05:40:03;;;;;;;2.90;1.40;;;15.50;54.20;;;;;;5095571;28;20023;-63
2022/01/05 05:42:30;;;;;;;2.95;1.23;;;15.50;54.10;;;;;;5095499;28;20421;-63
2022/01/05 05:44:56;;;;;;;2.58;1.33;;;15.50;54.10;;;;;;5095065;28;20073;-62
2022/01/05 05:47:23;;;;;;;2.80;1.30;;;15.50;54.10;;;;;;5094927;28;20044;-64
2022/01/05 05:49:50;;;;;;;4.40;1.40;;;15.50;54.00;;;;;;5095010;28;20103;-65
2022/01/05 05:52:16;;;;;;;4.18;1.40;;;15.50;54.00;;;;;;5094872;28;20055;-62
2022/01/05 05:54:42;;;;;;;2.58;1.40;;;15.50;54.00;;;;;;5094664;28;20056;-64
2022/01/05 05:57:11;;;;;;;3.58;1.40;;;15.50;53.90;;;;;;5094532;28;20509;-64
2022/01/05 05:59:36;;;;;;;3.53;1.38;;;15.50;53.90;;;;;;5094971;28;20099;-63
2022/01/05 06:02:04;;;;;;;2.90;1.30;;;15.50;54.00;;;;;;5094754;28;20009;-63
2022/01/05 06:04:30;;;;;;;2.95;1.38;;;15.50;53.90;;;;;;5094596;28;20149;-61
2022/01/05 06:06:56;;;;;;;2.45;1.30;;;15.50;53.90;;;;;;5094690;28;20016;-62
2022/01/05 06:09:22;;;;;;;4.75;1.23;;;15.40;53.90;;;;;;5094154;28;20094;-62
2022/01/05 06:11:49;;;;;;;3.00;1.40;;;15.50;53.90;;;;;;5094595;28;20020;-62
2022/01/05 06:14:14;;;;;;;1.90;1.08;;;15.40;53.90;;;;;;5093061;28;20043;-62
2022/01/05 06:16:43;;;;;;;2.33;1.23;;;15.40;53.80;;;;;;5094202;28;20536;-63
2022/01/05 06:19:09;;;;;;;1.85;1.00;;;15.40;54.40;;;;;;5094097;28;20043;-63
2022/01/05 06:21:34;;;;;;;2.78;1.33;;;15.40;53.80;;;;;;5093933;28;20051;-61
2022/01/05 06:24:01;;;;;;;3.60;1.30;;;15.40;53.80;;;;;;5093748;28;20020;-61
2022/01/05 06:26:27;;;;;;;4.05;1.52;;;15.40;53.80;;;;;;5093645;28;20136;-62
2022/01/05 06:28:52;;;;;;;3.63;1.23;;;15.40;53.70;;;;;;5093700;28;20024;-62
2022/01/05 06:31:19;;;;;;;3.53;1.50;;;15.40;53.70;;;;;;5094135;28;20024;-62
2022/01/05 06:33:45;;;;;;;3.95;1.30;;;15.40;53.80;;;;;;5094183;28;20028;-61
2022/01/05 06:36:10;;;;;;;3.55;1.60;;;15.40;53.70;;;;;;5094341;28;20057;-62
2022/01/05 06:38:36;;;;;;;2.47;1.33;;;15.40;53.70;;;;;;5092605;28;20012;-61
2022/01/05 06:41:02;;;;;;;2.58;1.35;;;15.40;53.50;;;;;;5093747;28;20016;-62
2022/01/05 06:43:30;;;;;;;3.00;1.50;;;15.40;53.50;;;;;;5094109;28;20087;-63
2022/01/05 06:45:57;;;;;;;5.88;1.35;;;15.30;53.50;;;;;;5093912;28;20069;-62
2022/01/05 06:48:23;;;;;;;2.65;1.25;;;15.40;53.50;;;;;;5094994;28;20025;-62
2022/01/05 06:50:49;;;;;;;2.47;1.20;;;15.40;53.50;;;;;;5094450;28;20027;-62
2022/01/05 06:53:15;;;;;;;1.77;1.00;;;15.40;53.30;;;;;;5093180;28;20024;-62
2022/01/05 06:55:41;;;;;;;2.72;1.20;;;15.50;53.10;;;;;;5093771;28;20028;-63
2022/01/05 06:58:07;;;;;;;3.05;1.40;;;15.60;52.70;;;;;;5092456;28;20533;-64
2022/01/05 07:00:33;;;;;;;3.63;1.38;;;15.70;52.50;;;;;;5093259;28;20108;-62
2022/01/05 07:02:58;;;;;;;2.03;1.20;;;15.70;52.30;;;;;;5094210;28;20027;-65
2022/01/05 07:05:24;;;;;;;4.57;1.75;;;15.80;52.10;;;;;;5092551;28;20031;-62
2022/01/05 07:07:50;;;;;;;3.42;1.40;;;15.80;52.00;;;;;;5092229;28;20043;-62
2022/01/05 07:10:17;;;;;;;3.05;1.30;;;15.90;51.80;;;;;;5094874;28;20047;-62
2022/01/05 07:12:42;;;;;;;3.17;1.52;;;16.00;51.60;;;;;;5095364;28;20012;-63
2022/01/05 07:15:09;;;;;;;3.10;1.33;;;16.10;51.30;;;;;;5094802;28;20052;-63
2022/01/05 07:17:35;;;;;;;6.63;1.67;;;16.10;51.30;;;;;;5093741;28;20370;-62
2022/01/05 07:20:00;;;;;;;4.95;1.10;;;16.30;50.90;;;;;;5094828;28;20481;-64
2022/01/05 07:22:26;;;;;;;2.40;1.30;;;16.30;50.60;;;;;;5093738;28;20024;-64
2022/01/05 07:24:52;;;;;;;4.40;1.80;;;16.40;50.50;;;;;;5093757;28;20028;-63
2022/01/05 07:27:18;;;;;;;2.45;1.33;;;16.50;50.40;;;;;;5094832;28;20024;-62
2022/01/05 07:29:44;;;;;;;2.50;1.25;;;16.50;50.20;;;;;;5094577;28;20026;-63
2022/01/05 07:32:10;;;;;;;3.53;1.20;;;16.50;50.10;;;;;;5094822;28;20032;-64
2022/01/05 07:34:37;;;;;;;2.70;1.10;;;16.60;49.90;;;;;;5094249;28;20479;-63
2022/01/05 07:37:02;;;;;;;2.75;1.17;;;16.60;49.80;;;;;;5094062;28;20012;-62
2022/01/05 07:39:28;;;;;;;2.20;1.17;;;16.70;49.60;;;;;;5094313;28;20062;-61
2022/01/05 07:41:55;;;;;;;4.50;1.42;;;16.70;49.50;;;;;;5093892;28;20066;-61
2022/01/05 07:44:20;;;;;;;2.10;1.20;;;16.80;49.30;;;;;;5094953;28;20016;-62
2022/01/05 07:46:46;;;;;;;3.70;1.45;;;16.90;49.20;;;;;;5094178;28;20432;-61
2022/01/05 07:49:12;;;;;;;2.90;1.25;;;16.90;49.00;;;;;;5094020;28;20559;-61
2022/01/05 07:51:38;;;;;;;3.22;1.40;;;16.90;48.80;;;;;;5093865;28;20016;-61
2022/01/05 07:54:04;;;;;;;1.83;1.02;;;17.00;48.70;;;;;;5092263;28;20056;-61
2022/01/05 07:56:30;;;;;;;2.42;1.20;;;17.10;48.70;;;;;;5093953;28;20089;-60
2022/01/05 07:58:55;;;;;;;4.05;1.40;;;17.10;48.60;;;;;;5095444;28;20526;-61
2022/01/05 08:01:22;;;;;;;2.25;1.20;;;17.10;48.50;;;;;;5097464;28;20032;-61
2022/01/05 08:03:49;;;;;;;2.65;1.33;;;17.10;48.40;;;;;;5097485;28;20031;-62
2022/01/05 08:06:15;;;;;;;2.67;1.20;;;17.20;48.30;;;;;;5097425;28;20020;-62
2022/01/05 08:08:43;;;;;;;2.42;1.13;;;17.20;48.20;;;;;;5097902;28;20127;-61
2022/01/05 08:11:10;;;;;;;6.00;1.45;;;17.20;48.10;;;;;;5097651;28;20572;-61
2022/01/05 08:13:36;;;;;;;3.85;1.35;;;17.30;48.10;;;;;;5096928;28;20027;-61
2022/01/05 08:16:03;;;;;;;2.58;1.15;;;17.30;48.00;;;;;;5096826;28;20087;-61
2022/01/05 08:18:29;;;;;;;2.53;1.20;;;17.30;48.00;;;;;;5097129;28;20054;-60
2022/01/05 08:20:55;;;;;;;2.35;1.10;;;17.30;48.00;;;;;;5095702;28;20016;-60
2022/01/05 08:23:21;;;;;;;3.25;1.20;;;17.30;48.00;;;;;;5096804;28;20027;-61
2022/01/05 08:25:47;;;;;;;3.47;1.30;;;17.40;48.00;;;;;;5096767;28;20049;-61
2022/01/05 08:28:14;;;;;;;2.05;1.17;;;17.30;47.90;;;;;;5095465;28;20502;-61
2022/01/05 08:30:40;;;;;;;2.13;1.10;;;17.40;47.90;;;;;;5097039;28;20493;-61
2022/01/05 08:33:06;;;;;;;4.45;1.55;;;17.40;47.70;;;;;;5097505;28;20008;-60
2022/01/05 08:35:32;;;;;;;4.60;1.40;;;17.40;47.50;;;;;;5095813;28;20474;-61
2022/01/05 08:38:01;;;;;;;2.92;1.45;;;17.40;47.40;;;;;;5097342;28;20016;-61
2022/01/05 08:40:27;;;;;;;5.47;1.73;;;17.40;47.30;;;;;;5098549;28;20012;-62
2022/01/05 08:42:53;;;;;;;2.53;1.30;;;17.40;47.30;;;;;;5097159;28;20031;-61
2022/01/05 08:45:19;;;;;;;2.85;1.50;;;17.50;47.30;;;;;;5096041;28;20028;-60
2022/01/05 08:47:48;;;;;;;4.32;1.73;;;17.50;47.20;;;;;;5096950;28;20019;-61
2022/01/05 08:50:15;;;;;;;4.40;1.50;;;17.50;47.20;;;;;;5097186;28;20074;-60
2022/01/05 08:52:42;;;;;;;5.35;1.67;;;17.50;47.10;;;;;;5096157;28;20042;-60
2022/01/05 08:55:08;;;;;;;5.13;1.70;;;17.60;47.10;;;;;;5096605;28;20494;-61
2022/01/05 08:57:37;;;;;;;4.22;1.70;;;17.60;47.10;;;;;;5096564;28;20012;-60
2022/01/05 09:00:04;;;;;;;3.10;1.15;;;17.60;47.10;;;;;;5095851;28;20099;-61
2022/01/05 09:02:30;;;;;;;2.65;1.08;;;17.60;47.00;;;;;;5095760;28;20015;-59
2022/01/05 09:04:57;;;;;;;3.20;1.20;;;17.60;47.00;;;;;;5095927;28;20028;-60
2022/01/05 09:07:25;;;;;;;3.17;1.30;;;17.60;47.00;;;;;;5095803;28;20487;-60
2022/01/05 09:09:52;;;;;;;3.08;1.45;;;17.70;47.00;;;;;;5095521;28;20454;-60
2022/01/05 09:12:17;;;;;;;4.07;1.42;;;17.70;47.00;;;;;;5096084;28;20127;-60
2022/01/05 09:14:43;;;;;;;3.67;1.60;;;17.60;47.00;;;;;;5095479;28;20527;-61
2022/01/05 09:17:09;;;;;;;4.30;1.50;;;17.60;47.00;;;;;;5094560;28;20089;-61
2022/01/05 09:19:35;;;;;;;2.60;1.15;;;17.60;47.10;;;;;;5095800;28;20497;-60
2022/01/05 09:22:01;;;;;;;2.85;1.42;;;17.70;47.10;;;;;;5094548;28;20016;-60
2022/01/05 09:24:27;;;;;;;2.65;1.30;;;17.70;47.00;;;;;;5095735;28;20012;-60
2022/01/05 09:26:53;;;;;;;3.40;1.45;;;17.70;47.00;;;;;;5095368;28;20024;-60
2022/01/05 09:29:18;;;;;;;3.55;1.80;;;17.70;47.00;;;;;;5095314;28;20020;-61
2022/01/05 09:31:45;;;;;;;2.35;0.90;;;17.80;47.00;;;;;;5095800;28;20078;-61
2022/01/05 09:34:12;;;;;;;4.35;1.55;;;17.80;46.90;;;;;;5096962;28;20169;-62
2022/01/05 09:36:46;;;;;;;1.73;0.95;;;17.80;47.00;;;;;;5095329;28;20459;-59
2022/01/05 09:41:56;;;;;;;2.28;1.00;;;17.80;46.90;;;;;;5095771;28;20051;-60
2022/01/05 09:44:32;;;;;;;2.58;1.50;;;17.80;46.80;;;;;;5095916;28;20467;-61
2022/01/05 09:47:12;;;;;;;3.05;1.20;;;17.80;46.80;;;;;;5095601;28;20066;-60
2022/01/05 09:49:56;;;;;;;;;;;17.80;46.80;;;;;;5095358;28;20012;-61
2022/01/05 09:52:23;;;;;;;5.47;1.63;;;17.90;46.80;;;;;;5094439;28;19900;-61
2022/01/05 09:54:52;;;;;;;3.25;1.52;;;17.90;46.70;;;;;;5095630;28;20028;-62
2022/01/05 09:57:20;;;;;;;2.45;1.30;;;18.00;46.70;;;;;;5095847;28;20084;-61
2022/01/05 09:59:49;;;;;;;2.85;1.50;;;17.90;46.60;;;;;;5095759;28;20070;-63
2022/01/05 10:02:16;;;;;;;2.22;1.48;;;17.90;46.60;;;;;;5095840;28;20012;-63
2022/01/05 10:04:42;;;;;;;3.55;1.40;;;18.00;46.60;;;;;;5097960;28;20043;-63
2022/01/05 10:07:09;;;;;;;3.58;1.60;;;18.00;46.50;;;;;;5097320;28;20040;-63
2022/01/05 10:09:42;;;;;;;2.67;1.30;;;18.00;46.60;;;;;;5098741;28;20105;-63
2022/01/05 10:12:09;;;;;;;3.33;1.30;;;18.00;46.50;;;;;;5099269;28;20024;-64
2022/01/05 10:14:38;;;;;;;3.75;1.77;;;18.00;46.50;;;;;;5097843;28;20036;-63
2022/01/05 10:17:12;;;;;;;4.05;1.50;;;18.00;46.50;;;;;;5097075;28;20048;-63
2022/01/05 10:19:38;;;;;;;3.03;1.50;;;18.10;46.50;;;;;;5096947;28;20039;-62
2022/01/05 10:22:24;;;;;;;3.05;1.23;;;18.10;46.40;;;;;;5093883;28;20036;-63
2022/01/05 10:24:51;;;;;;;4.13;1.38;;;18.10;46.40;;;;;;5096297;28;20028;-63
2022/01/05 10:27:20;;;;;;;2.92;1.33;;;18.10;46.30;;;;;;5096429;28;20140;-64
2022/01/05 10:29:57;;;;;;;3.03;1.20;;;18.10;46.30;;;;;;5096112;28;20012;-63
2022/01/05 10:32:24;;;;;;;3.20;1.45;;;18.10;46.30;;;;;;5094675;28;20024;-63
2022/01/05 10:35:03;;;;;;;4.10;1.65;;;18.10;46.30;;;;;;5096004;28;20024;-63
2022/01/05 10:37:29;;;;;;;3.20;1.88;;;18.10;46.90;;;;;;5095626;28;20020;-63
2022/01/05 10:40:07;;;;;;;6.28;1.60;;;18.10;46.30;;;;;;5095970;28;20008;-63
2022/01/05 10:42:33;;;;;;;3.40;1.33;;;18.10;46.30;;;;;;5096647;28;20036;-63
2022/01/05 10:44:59;;;;;;;3.53;1.58;;;18.10;46.20;;;;;;5095471;28;20019;-63
2022/01/05 10:47:25;;;;;;;2.72;1.48;;;18.20;46.20;;;;;;5095380;28;20024;-63
2022/01/05 10:49:52;;;;;;;3.90;1.50;;;18.20;46.20;;;;;;5094658;28;20121;-62
2022/01/05 10:52:21;;;;;;;2.67;1.10;;;18.10;46.20;;;;;;5093174;28;20471;-62
2022/01/05 10:54:47;;;;;;;4.40;1.55;;;18.10;46.20;;;;;;5093765;28;20027;-62
2022/01/05 10:57:13;;;;;;;3.22;1.50;;;18.10;46.20;;;;;;5092603;28;20032;-62
2022/01/05 10:59:43;;;;;;;4.38;1.70;;;18.20;46.20;;;;;;5093509;28;20008;-63
2022/01/05 11:02:24;;;;;;;4.57;1.40;;;18.20;46.20;;;;;;5093344;28;20061;-63
2022/01/05 11:04:55;;;;;;;3.38;1.40;;;18.20;46.20;;;;;;5093165;28;20019;-63
2022/01/05 11:07:22;;;;;;;2.58;1.30;;;18.20;46.20;;;;;;5092982;28;20020;-63
2022/01/05 11:09:56;;;;;;;3.28;1.40;;;18.20;46.10;;;;;;5093483;28;20020;-62
2022/01/05 11:12:31;;;;;;;4.00;1.50;;;18.20;46.00;;;;;;5093661;28;20031;-62
2022/01/05 11:15:19;;;;;;;3.10;1.40;;;18.30;46.10;;;;;;5093049;28;20025;-62
2022/01/05 11:18:08;;;;;;;1.95;1.38;;;18.30;46.10;;;;;;5093394;28;20051;-62
2022/01/05 11:20:38;;;;;;;3.65;1.40;;;18.20;46.00;;;;;;5093776;28;20043;-62
2022/01/05 11:23:05;;;;;;;2.10;1.35;;;18.20;46.00;;;;;;5093941;28;20041;-62
2022/01/05 11:25:31;;;;;;;2.72;1.00;;;18.10;46.10;;;;;;5093483;28;20013;-62
2022/01/05 11:27:59;;;;;;;2.53;1.38;;;18.10;46.70;;;;;;5093411;28;20367;-62
2022/01/05 11:30:25;;;;;;;3.20;1.33;;;18.10;46.30;;;;;;5092019;28;20082;-62
2022/01/05 11:32:51;;;;;;;2.67;1.25;;;18.00;46.30;;;;;;5076900;28;20012;-63
2022/01/05 11:35:17;;;;;;;2.10;1.13;;;18.00;46.30;;;;;;5097380;28;20467;-63
2022/01/05 11:37:43;;;;;;;4.47;1.65;;;18.00;46.40;;;;;;5096206;28;20024;-63
2022/01/05 11:40:09;;;;;;;2.17;1.30;;;18.00;46.50;;;;;;5079244;28;20065;-62
2022/01/05 11:42:35;;;;;;;2.13;1.17;;;17.90;46.60;;;;;;5096209;28;20013;-62
2022/01/05 11:45:04;;;;;;;2.28;1.20;;;17.90;46.60;;;;;;5097136;28;20385;-63
2022/01/05 11:47:35;;;;;;;2.72;1.20;;;17.80;46.70;;;;;;5097555;28;20050;-62
2022/01/05 11:50:12;;;;;;;2.92;1.20;;;17.80;46.80;;;;;;5097279;28;20016;-62
2022/01/05 11:53:06;;;;;;;4.15;1.42;;;17.80;46.90;;;;;;5097598;28;20028;-62
2022/01/05 11:55:53;;;;;;;2.75;1.30;;;17.80;47.00;;;;;;5097585;28;20027;-62
2022/01/05 11:58:24;;;;;;;4.43;1.67;;;17.70;47.10;;;;;;5097956;28;20104;-63
2022/01/05 12:01:12;;;;;;;6.22;1.70;;;17.60;47.20;;;;;;5097192;28;20017;-62
2022/01/05 12:04:00;;;;;;;2.28;1.20;;;17.60;47.40;;;;;;5096925;28;20016;-63
2022/01/05 12:06:50;;;;;;;4.82;1.42;;;17.50;47.50;;;;;;5096885;28;20016;-63
2022/01/05 12:09:20;;;;;;;3.03;1.50;;;17.50;47.60;;;;;;5092771;28;20048;-63
2022/01/05 12:11:45;;;;;;;3.65;1.30;;;17.50;47.60;;;;;;5096726;28;20020;-63
2022/01/05 12:14:20;;;;;;;4.22;1.48;;;17.40;47.80;;;;;;5097024;28;20107;-63
2022/01/05 12:17:01;;;;;;;2.05;1.15;;;17.30;47.90;;;;;;5097049;28;20012;-63
2022/01/05 12:19:27;;;;;;;2.83;1.50;;;17.20;48.00;;;;;;5096962;28;20012;-63
2022/01/05 12:21:54;;;;;;;5.63;1.60;;;17.20;48.00;;;;;;5097082;28;20031;-63
2022/01/05 12:24:20;;;;;;;3.78;1.42;;;17.30;48.10;;;;;;5096991;28;20012;-63
2022/01/05 12:27:18;;;;;;;3.67;1.48;;;17.20;48.10;;;;;;5095632;28;20084;-63
2022/01/05 12:29:46;;;;;;;3.50;1.60;;;17.20;48.20;;;;;;5074093;28;20043;-63
2022/01/05 12:32:26;;;;;;;2.47;1.20;;;17.20;48.20;;;;;;5074386;28;20025;-63
2022/01/05 12:34:56;;;;;;;2.50;1.40;;;17.10;48.30;;;;;;5058423;28;20040;-63
2022/01/05 12:37:46;;;;;;;2.88;1.48;;;17.00;48.40;;;;;;5074545;28;20024;-63
2022/01/05 12:40:24;;;;;;;3.53;1.23;;;17.10;48.30;;;;;;5073988;28;20024;-63
2022/01/05 12:43:13;;;;;;;3.78;1.63;;;17.00;48.50;;;;;;5074026;28;20016;-63
2022/01/05 12:45:54;;;;;;;3.38;1.45;;;16.90;48.70;;;;;;5061145;28;20031;-63
2022/01/05 12:48:33;;;;;;;3.55;1.65;;;17.00;48.70;;;;;;5073410;28;20020;-62
2022/01/05 12:54:02;;;;;;;2.58;1.20;;;16.90;48.70;;;;;;5073385;28;20021;-61
2022/01/05 12:56:47;;;;;;;2.65;1.30;;;16.90;48.90;;;;;;5073329;28;20040;-62